Pablo Fernandez

Chief Scout - O'Higgins
20 Nov 2027
Saturday
Process

Personality

Adaptability (12) Ambition (1) Controversy (12) Loyalty (14) Pressure (4) Professionalism (5) Sportsmanship (2) Temperament (3)

Profile

Coaching Style Democratic
License Continental A
Determination 4
Man Management 6
Motivating 5
Discipline 9
Job Satisfaction
100%
Fatigue
0%
Role Chief Scout
Wage 33.1K p/w
Contract 14.03.2028

Performance

Behaviour Good
Training Effectiveness
36%
Player Development
40%
Injury Prevention
30%
Tactical Implementation
45%

Recent Events

Assessed a player now
Attended a recruitment meeting now
Attended a recruitment meeting now
Attended a recruitment meeting now
Assessed a player 7d ago
Assessed a player 7d ago
Assessed a player 7d ago
Assessed a player 7d ago

Currently Monitoring

212
Player Club Status Ability Confidence Watched Last Observed Latest Vote
Santos Torrealba Zamora Active 96 / 102 40% 2 19.11.2027 -
Austine Odongo Shabana Active 95 / 78 40% 2 19.11.2027 -
Felix Mosquera Deportes Quindio Active 99 / 94 40% 2 15.11.2027 -
Tiago Borquez Gimnasia y Tiro Active 94 / 80 40% 1 15.11.2027 -
Gonzalo Gelini Boca Juniors Active 126 / 133 40% 1 13.11.2027 -
Julián Bragado Morón Active 93 / 92 40% 2 12.11.2027 -
Joseph Abah Remo Stars Active 99 / 99 40% 1 12.11.2027 -
Tiago Gordillo San Miguel Active 84 / 91 40% 3 11.11.2027 -
Mateo Aguiar Defensa y Justicia Active 117 / 114 40% 5 11.11.2027 -
Tomás Parmo River Plate Active 127 / 130 40% 2 10.11.2027 -
Thiago D'Archivio Alvarado Active 83 / 86 40% 3 10.11.2027 -
Felipe Obradovich Gimnasia La Plata Active 116 / 124 40% 1 08.11.2027 -
Tiziano Cabrera Central Norte Active 77 / 97 40% 3 07.11.2027 -
Thiago Szkaluba Santiago Wanderers Active 92 / 92 40% 2 07.11.2027 -
Alex Amaefula Kun Khalifat Active 71 / 86 40% 3 06.11.2027 -
Joel Medina Independiente Active 107 / 119 40% 2 06.11.2027 -
Mateo Peralta Danubio Active 123 / 111 40% 6 04.11.2027 -
Valentino Acuña Newell's Old Boys Active 102 / 118 40% 2 04.11.2027 -
Facundo Balatti Penarol Active 97 / 115 40% 4 02.11.2027 -
Mateo Silvetti Inter Miami CF Active 140 / 114 40% 2 31.10.2027 -
Franco Minerva Platense Active 113 / 123 40% 1 30.10.2027 -
Wilfred Correa Caracas Active 84 / 95 40% 2 29.10.2027 -
Mateo Alcoba Albion Active 86 / 92 40% 1 29.10.2027 -
Chimobi Igwilo Rangers International Active 104 / 89 40% 2 24.10.2027 -
Oskar Spiten-Nysæter Molde Active 106 / 122 40% 2 24.10.2027 -
Matías Acevedo Racing Club Active 103 / 123 40% 1 23.10.2027 -
Tiziano Noriega Tristán Suárez Active 102 / 102 40% 1 23.10.2027 -
Luka Andrade Montevideo City Torque Active 110 / 110 40% 3 21.10.2027 -
Emmanuel Ndubueze Shooting Stars Active 96 / 103 40% 2 21.10.2027 -
Dylan Salvo Defensores Unidos Active 110 / 110 40% 2 20.10.2027 -
Nicolás Azambuja Danubio Active 123 / 133 40% 3 20.10.2027 -
Esteban de Lima Tacuarembo Active 84 / 94 40% 3 18.10.2027 -
Bryan Caicedo Leones Active 98 / 99 40% 3 18.10.2027 -
Ignacio Alastra Talleres Active 94 / 111 40% 2 16.10.2027 -
Sebastián Ramírez America de Cali Active 99 / 120 40% 1 15.10.2027 -
Abubakar Garba Nasarawa United Active 80 / 102 40% 2 12.10.2027 -
Sunday Aniebet Enyimba Active 95 / 102 40% 3 12.10.2027 -
Geanfranco Rodríguez Defensor Sporting Active 92 / 102 40% 1 11.10.2027 -
Lucas Duré Montevideo City Torque Active 104 / 98 40% 4 09.10.2027 -
Jhon Renteria Sarmiento Active 108 / 115 40% 2 08.10.2027 -
Dilan Godoy Vélez Active 114 / 122 40% 3 07.10.2027 -
Emiliano Zambrano Gimnasia y Esgrima Active 98 / 101 40% 1 06.10.2027 -
Agustín Medina Lanús Active 108 / 121 40% 2 05.10.2027 -
Pablo Suárez Rentistas Active 100 / 108 40% 1 04.10.2027 -
Mateo Pérez Curci Independiente Active 108 / 122 40% 1 30.09.2027 -
Gideon Manaseh Ikorodu City Active 86 / 87 40% 1 25.09.2027 -
Victor Muriel Valledupar Active 94 / 92 40% 1 23.09.2027 -
Halam Loboa Independiente Medellin Active 122 / 134 40% 1 22.09.2027 -
Appolinaire Bougma Binga Active 86 / 99 40% 1 21.09.2027 -
Sergio Castillo Cortulua Active 109 / 116 40% 1 19.09.2027 -
Jhon Aponza Boca Juniors Active 109 / 121 40% 1 16.09.2027 -
Facundo Gulli San Lorenzo Active 110 / 129 40% 1 07.09.2027 -
Mohamed-Ali Cho Hull City Active 150 / 129 40% 1 13.07.2027 -
Harvey Blair Portsmouth Active 120 / 122 40% 1 13.07.2027 -
Franco Iturriaga Colo-Colo Active 83 / 100 55% 1 12.07.2027 -
Aidomo Emakhu Oxford United Active 107 / 118 40% 2 08.06.2027 -
Callum O'Hare Sheffield United Active 148 / 127 40% 1 08.06.2027 -
Benjamín Mellado Huachipato Active 92 / 84 51% 1 06.06.2027 -
Senny Mayulu Paris Saint-Germain Active 151 / 143 40% 1 01.06.2027 -
Arda Güler Real Madrid Active 151 / 148 40% 1 11.05.2027 Needs More Info
Daniel Kyerewaa Reading Active 127 / 110 40% 3 10.05.2027 -
Finn Azaz Southampton Active 137 / 126 40% 3 10.05.2027 -
Relebohile Mofokeng Orlando Pirates Active 131 / 132 40% 4 08.05.2027 -
Max Johnston Derby County Active 139 / 123 40% 1 08.05.2027 -
Ramón Terrats Getafe Active 143 / 129 40% 2 07.05.2027 -
Jeon Jin-Woo Sheffield Wednesday Active 120 / 128 40% 1 07.05.2027 -
Rumarn Burrell Queens Park Rangers Active 121 / 125 40% 2 06.05.2027 -
Enzo Le Fée Sunderland Active 148 / 130 40% 1 06.05.2027 -
Welington Southampton Active 141 / 132 40% 2 05.05.2027 -
Isaiah Jones Luton Town Active 143 / 132 40% 3 04.05.2027 -
Ali Ahmed Norwich City Active 130 / 136 40% 1 04.05.2027 -
Alex Verón Villarreal Active 94 / 128 40% 1 03.05.2027 -
Samuel Lucero Defensa y Justicia Active 110 / 114 40% 1 03.05.2027 -
Loum Tchaouna Coventry City Active 155 / 149 40% 1 01.05.2027 -
Isaac Price West Bromwich Albion Active 136 / 133 40% 1 01.05.2027 -
Araphat Mohammed Medeama Active 115 / 119 40% 1 01.05.2027 -
Fraser Murray Wigan Athletic Active 136 / 103 40% 4 29.04.2027 -
Cian Ashford Cardiff City Active 125 / 116 40% 3 28.04.2027 -
Ronald Swansea City Active 135 / 133 40% 3 28.04.2027 -
Myles Peart-Harris Oxford United Active 103 / 125 40% 1 27.04.2027 -
Jack Rudoni Coventry City Active 149 / 129 40% 1 27.04.2027 -
Lamine Cissé Peterborough United Active 129 / 126 40% 2 26.04.2027 -
Tshepang Moremi Orlando Pirates Active 124 / 124 40% 3 26.04.2027 -
Ethan Galbraith Swansea City Active 119 / 131 40% 4 25.04.2027 -
Koki Saito Queens Park Rangers Active 122 / 130 40% 1 22.04.2027 -
Gorka Gorosabel Real Sociedad Active 120 / 126 40% 2 21.04.2027 -
Jason Knight Bristol City Active 134 / 141 40% 1 21.04.2027 -
Milan van Ewijk Coventry City Active 147 / 143 40% 1 17.04.2027 -
Helinho Toluca Active 135 / 140 40% 3 16.04.2027 -
Oscar Schwartau Norwich City Active 138 / 142 40% 2 16.04.2027 -
Harry Clarke Preston Active 142 / 141 40% 1 16.04.2027 -
Luke Baartman Bidvest Wits Active 100 / 103 40% 1 15.04.2027 -
Sam Curtis Swindon Town Active 108 / 112 40% 1 15.04.2027 -
Dávid Strelec Middlesbrough Active 132 / 132 40% 1 14.04.2027 -
Bradley Zwane SuperSport United Active 112 / 105 40% 2 13.04.2027 -
Martim Cunha Porto Active 101 / 100 40% 1 11.04.2027 -
Charles De Ketelaere Atalanta Active 140 / 144 40% 1 09.04.2027 -
Caleb Yirenkyi Coventry City Active 146 / 132 40% 2 08.04.2027 -
Brian Figueroa Morelia Active 95 / 118 40% 5 05.04.2027 -
Mfundo Vilakazi Kaizer Chiefs Active 132 / 107 40% 2 05.04.2027 -
Ollie Tanner Cardiff City Active 109 / 105 40% 1 28.03.2027 -
Romano Schmid Frosinone Active 135 / 146 40% 1 26.03.2027 -
Bazoumana Touré Newcastle United Active 126 / 140 40% 2 25.03.2027 -
Tyrese Campbell Sheffield United Active 127 / 113 40% 1 23.03.2027 -
Isma Ruiz Córdoba Active 124 / 128 40% 2 22.03.2027 -
Tom Fellows Southampton Active 128 / 126 40% 1 22.03.2027 -
Juan Bezerra Zamalek Active 128 / 124 40% 1 21.03.2027 -
Othmane Maamma Watford Active 121 / 120 40% 1 21.03.2027 -
Lander Astiazarán Real Sociedad Active 115 / 104 40% 2 17.03.2027 -
Veljko Radosavljević Cukaricki Active 113 / 112 40% 1 14.03.2027 -
Bobby Clark Derby County Active 110 / 134 40% 1 10.03.2027 -
Camilo Durán Bloemfontein Celtic Active 102 / 119 40% 3 09.03.2027 -
Julio Enciso Ipswich Town Active 129 / 141 40% 1 09.03.2027 -
Shea Lacey Millwall Active 109 / 123 40% 1 09.03.2027 -
Xavier Biscayzacú Sporting CP Active 126 / 142 40% 1 09.03.2027 -
Mduduzi Shabalala Kaizer Chiefs Active 108 / 115 40% 3 07.03.2027 -
Andre Brooks Sheffield United Active 117 / 136 40% 2 07.03.2027 -
Asanele Bonani Chippa United Active 79 / 105 40% 1 04.03.2027 -
Mathias Jørgensen Blackburn Rovers Active 119 / 125 40% 2 02.03.2027 -
Alphadjo Cissé Pisa Active 141 / 117 40% 1 02.03.2027 -
James Dornelly Peterborough United Active 87 / 117 40% 1 02.03.2027 -
Jack McGlynn Stoke City Active 137 / 140 40% 2 01.03.2027 -
Nazar Voloshyn Dynamo Kyiv Active 115 / 138 40% 4 20.02.2027 -
Jordhy Thompson Rubin Active 123 / 129 40% 3 14.02.2027 -
Tariq Lamptey Queens Park Rangers Active 117 / 132 40% 1 12.02.2027 -
Michal Kohút Banik Ostrava Active 148 / 124 40% 1 09.02.2027 -
Filip Kubala Banik Ostrava Active 104 / 108 40% 1 08.02.2027 -
Louie Barry Sheffield Wednesday Active 112 / 123 40% 2 05.02.2027 -
Petar Stanić Ludogorets Active 128 / 145 40% 2 04.02.2027 -
Juan Larios Piast Active 112 / 107 40% 2 01.02.2027 -
Aljoša Matko Ujpest Active 140 / 124 40% 2 29.01.2027 -
Othmane Boussaid Aris Thessaloniki Active 113 / 126 40% 1 27.01.2027 -
Mihailo Ivanović Millwall Active 116 / 116 40% 1 27.01.2027 -
Wandile Duba Maritzburg United Active 96 / 115 40% 1 25.01.2027 -
Juan Bisanz Huracán Active 119 / 121 40% 1 24.01.2027 -
Manuel Mónaco Sarmiento Active 114 / 120 40% 1 21.01.2027 -
Alexis Cuello San Lorenzo Active 125 / 125 40% 1 19.01.2027 -
Mariano Bracamonte Deportivo Riestra Active 118 / 114 40% 1 18.01.2027 -
Alexis Steimbach Gimnasia La Plata Active 125 / 127 40% 3 14.01.2027 -
Rodrigo González Aldosivi Active 114 / 111 40% 1 14.01.2027 -
Santiago González Tigre Active 127 / 137 40% 1 13.01.2027 -
Aarón Molinas Defensa y Justicia Active 132 / 118 40% 1 13.01.2027 -
Alex Luna Instituto Active 129 / 122 40% 1 11.01.2027 -
Siro Rosané Estudiantes Active 121 / 109 40% 1 04.01.2027 -
Martín Jiménez Audax Italiano Active 94 / 102 51% 1 28.12.2026 -
Luca Martínez Dupuy Godoy Cruz Active 110 / 116 40% 2 15.12.2026 -
Jonás Acevedo Instituto Active 115 / 121 40% 1 15.12.2026 -
Diego Rojas Antofagasta Active 116 / 111 51% 1 01.12.2026 -
Enzo Copetti Rosario Central Active 129 / 114 40% 1 30.11.2026 -
Mees Rijks Bristol Rovers Active 106 / 119 40% 1 26.11.2026 -
Emiliano Saliadarre Miramar Misiones Active 105 / 105 40% 1 25.11.2026 -
Marcelo Torres Gimnasia La Plata Active 122 / 118 40% 4 24.11.2026 -
Iqraam Rayners Mamelodi Sundowns Active 139 / 140 40% 2 19.11.2026 -
Sandi Elsnik NK Domzale Active 121 / 101 40% 1 18.11.2026 -
Elijah Adebayo Luton Town Active 108 / 131 40% 1 16.11.2026 -
Richard Koné Queens Park Rangers Active 117 / 123 40% 1 16.11.2026 -
Kelvin Yeboah Minnesota United FC Active 118 / 125 40% 2 15.11.2026 -
Jhon Murillo America de Cali Active 124 / 119 40% 1 12.11.2026 -
Alexander Aravena Portland Timbers Active 130 / 122 40% 5 10.11.2026 Monitor
Brayan Gil Baltika Active 102 / 117 40% 1 10.11.2026 -
Tadeo Allende Inter Miami CF Active 106 / 121 40% 1 08.11.2026 -
Bénie Traoré New York City Active 117 / 121 40% 1 05.11.2026 -
Rafael Navarro St. Louis CITY SC Active 137 / 114 40% 1 03.11.2026 Needs More Info
Manu Nieto Andorra Active 117 / 106 40% 2 01.11.2026 -
Luca Langoni New England Revolution Active 121 / 113 40% 5 29.10.2026 -
Marin Benko Zadar Active 108 / 115 40% 1 29.10.2026 -
Duncan McGuire Houston Dynamo Active 141 / 122 40% 1 21.10.2026 -
Sead Hakšabanović Malmo FF Active 112 / 119 40% 1 21.10.2026 -
Clemente Montes Universidad Catolica Active 107 / 117 40% 1 19.10.2026 -
Lewis Morgan Toronto FC Active 113 / 109 40% 1 18.10.2026 -
Michael Vadulli Audax Italiano Active 110 / 107 40% 1 17.10.2026 -
Denis Bouanga Los Angeles Football Club Active 123 / 142 40% 2 16.10.2026 -
Morgan Guilavogui Real Salt Lake Active 118 / 114 40% 1 11.10.2026 -
Roger Brugué Levante Active 129 / 133 40% 1 05.10.2026 -
Lucas Cornejo Estudiantes Active 92 / 99 40% 1 05.10.2026 -
Jordan Morris Seattle Sounders Active 117 / 121 40% 2 30.09.2026 -
Federico Girotti Alianza Lima Active 114 / 129 40% 1 30.09.2026 -
Alex Valera Universitario Active 117 / 129 40% 3 26.09.2026 -
Adalberto Peñaranda Deportivo Tachira Active 114 / 116 40% 1 25.09.2026 -
Tomás Chancalay Minnesota United FC Active 122 / 111 40% 1 25.09.2026 -
Genaro Rossi San Martín SJ Active 112 / 118 40% 2 19.09.2026 -
Jonathan Cañete Portuguesa Active 122 / 114 40% 1 17.09.2026 -
Wessam Abou Ali Columbus Crew Active 146 / 142 40% 1 17.09.2026 -
Agustín Venezia Iquique Active 95 / 119 40% 2 12.09.2026 -
Leandro Suhr Piast Active 103 / 107 40% 1 12.09.2026 -
Guilherme Houston Dynamo Active 109 / 109 40% 1 07.09.2026 -
Joe Abrigo Palestino Active 105 / 109 40% 1 06.09.2026 -
Pep Biel Charlotte Football Club Active 110 / 129 40% 1 05.09.2026 -
Felipe Vizeu Sporting Cristal Active 113 / 117 40% 1 03.09.2026 -
Richard Torales Guarani Active 111 / 117 40% 1 03.09.2026 -
Lucas Besozzi Lanús Active 111 / 125 40% 1 01.09.2026 -
Fabricio Rojas Gimnasia y Tiro Active 116 / 108 40% 1 30.08.2026 -
Walter González Sportivo Luqueno Active 126 / 104 40% 1 28.08.2026 -
Eryc Castillo Alianza Lima Active 106 / 116 40% 2 26.08.2026 -
Jesus Ferreira Seattle Sounders Active 133 / 132 40% 1 23.08.2026 -
Braian Morales Boca Juniors Active 91 / 91 40% 1 21.08.2026 -
Facundo Kalinger Huracán Active 98 / 108 40% 1 21.08.2026 -
Maximiliano Rodríguez Huachipato Active 118 / 104 40% 1 18.08.2026 -
Ramiro Ruiz Rodríguez Atlético Tucumán Active 111 / 130 40% 1 13.08.2026 -
Ray Sandoval Cienciano Active 100 / 108 40% 1 12.08.2026 -
José Rivera Universitario Active 123 / 106 40% 1 12.08.2026 -
Diego Osio Deportivo La Guaira Active 111 / 114 40% 1 11.08.2026 -
Nahuel Luján Sport Huancayo Active 125 / 102 40% 1 09.08.2026 -
Harold Santiago Mosquera Cerro Porteno Active 112 / 123 40% 1 09.08.2026 -
Rodrigo Morínigo Libertad Active 120 / 126 40% 1 08.08.2026 -
José Miers 12 de Octubre Active 100 / 91 40% 1 08.08.2026 -
Nahuel Brunet Godoy Cruz Active 123 / 111 40% 1 08.08.2026 -
Gaspar Gentile Alianza Lima Active 118 / 105 40% 1 07.08.2026 -
César Inga Universitario Active 132 / 135 40% 1 06.08.2026 -
Gerónimo Patritti Gimnasia y Esgrima Active 92 / 87 40% 1 05.08.2026 -
Gabriel Otero Atletico Venezuela Active 107 / 108 40% 1 04.08.2026 -
Lucas Varaldo Central Córdoba SdE Active 126 / 106 40% 1 02.08.2026 -